Artondale, Washington
Current Conditions -  °F | °C
As of 3:53 AM on Tuesday 27 Jan 2015 (Local Time) from KTIW Reporting Station
Broken Clouds Broken Clouds  
Wind Chill: 50°   Ceiling: 1900
Heat Index: 50°   Visibility: 10mi
Dew Point: 46°   Wind: 9mph
Humidity: 86%   Direction: 220°SW
Pressure: 29.99"   Gusts: NA
Location:  47.2986°N, 122.616°W
Report Text: KTIW 271153Z AUTO 22008KT 10SM BKN019 10/08 A2999 RMK AO2 SLP156 T01000078 10111 20083 53001
Loading
Personal Weather Stations






























Interactive Weather Map New forecast layout! Learn more

10-Day Weather Forecast

Advertisements
Track Severe Weather on mobile